Portugal Jovem — CUEY8 — position and weather

sailwx.info

Track history (hours):
 
Tides and Currents Weather Stations Pressure Air Temp Water Temp Dewpoint Dewpoint Depression Visibility Wind Speed Wind Dir Waves Ship Positions

Portugal Jovem

Last reported at 2017-Oct-18 21:59 UTC. Time now 2017-Oct-23 00:32 UTC.
Position N 41°09' W 008°43'.

Length 19 m.

Type: Fishing. MMSI: 263411970.

Date/timePositionNaut miles runAvg speedWind from/ knotsBaromVisibWave heightAir tempDewpointWater temp
2017-Oct-18 21:59N 41°09' W 008°43'2 0.0
2017-Oct-17 09:11N 41°11' W 008°42'0 0.0
2017-Oct-17 09:00N 41°11' W 008°42'0 0.0
2017-Oct-17 08:30N 41°11' W 008°42'0 0.0
2017-Oct-17 08:00N 41°11' W 008°42'0 0.0
2017-Oct-17 07:30N 41°11' W 008°42'0 0.0
2017-Oct-17 07:00N 41°11' W 008°42'0 0.0
2017-Oct-17 06:30N 41°11' W 008°42'0 0.0
2017-Oct-17 06:00N 41°11' W 008°42'0 0.0
2017-Oct-17 05:30N 41°11' W 008°42'0 0.0
2017-Oct-17 05:00N 41°11' W 008°42'2 0.3
2017-Oct-16 22:03N 41°09' W 008°43'110.3
2017-Oct-16 21:59N 41°10' W 008°43'1 0.1
2017-Oct-16 13:11N 41°11' W 008°42'0 0.1
2017-Oct-16 13:00N 41°11' W 008°42'0 0.0
2017-Oct-16 12:30N 41°11' W 008°42'0 0.0
2017-Oct-16 12:00N 41°11' W 008°42'0 0.0
2017-Oct-16 11:30N 41°11' W 008°42'0 0.0
2017-Oct-16 11:00N 41°11' W 008°42'0 0.0
2017-Oct-16 10:30N 41°11' W 008°42'0 0.0
2017-Oct-16 10:00N 41°11' W 008°42'3 0.4
2017-Oct-16 02:26N 41°08' W 008°42'3 7.8
2017-Oct-16 02:00N 41°11' W 008°42'0 0.0
2017-Oct-16 01:30N 41°11' W 008°42'0 0.0
2017-Oct-16 01:00N 41°11' W 008°42'0 0.0
2017-Oct-16 00:30N 41°11' W 008°42'0 0.0
2017-Oct-16 00:00N 41°11' W 008°42'0 0.0
2017-Oct-15 23:30N 41°11' W 008°42'0 0.0
2017-Oct-15 23:00N 41°11' W 008°42'0 0.0
2017-Oct-15 22:30N 41°11' W 008°42'0 0.0
2017-Oct-15 22:00N 41°11' W 008°42'0 0.0
2017-Oct-14 07:48N 41°11' W 008°42'0 0.0
2017-Oct-14 07:31N 41°11' W 008°42'0 0.0
2017-Oct-14 07:01N 41°11' W 008°42'0 0.0
2017-Oct-13 14:17N 41°11' W 008°42'0 0.0
2017-Oct-13 14:01N 41°11' W 008°42'0 0.0
2017-Oct-13 13:31N 41°11' W 008°42'0 0.0
2017-Oct-13 13:01N 41°11' W 008°42'0 0.0
2017-Oct-13 12:30N 41°11' W 008°42'0 0.0
2017-Oct-13 12:00N 41°11' W 008°42'0 0.0
2017-Oct-13 11:30N 41°11' W 008°42'0 0.0
2017-Oct-13 11:00N 41°11' W 008°42'0 0.0
2017-Oct-13 10:30N 41°11' W 008°42'0 0.0
2017-Oct-13 10:00N 41°11' W 008°42'0 0.0
2017-Oct-13 09:30N 41°11' W 008°42'0 0.0
2017-Oct-13 09:00N 41°11' W 008°42'0 0.0
2017-Oct-13 08:31N 41°11' W 008°42'0 0.3
2017-Oct-13 08:00N 41°11' W 008°42'0 0.3
2017-Oct-13 07:31N 41°11' W 008°42'0 0.0
2017-Oct-13 07:01N 41°11' W 008°42'0 0.0
2017-Oct-13 06:30N 41°11' W 008°42'1 2.3
2017-Oct-13 06:00N 41°10' W 008°42'  
2017-Oct-08 23:02N 41°09' W 008°43'010.8
2017-Oct-08 23:00N 41°09' W 008°43'2 3.6
2017-Oct-08 22:30N 41°11' W 008°42'  
Track history (hours):
 
Tides and Currents Weather Stations Pressure Air Temp Water Temp Dewpoint Dewpoint Depression Visibility Wind Speed Wind Dir Waves Ship Positions

Portugal Jovem

Last reported at 2017-Oct-18 21:59 UTC. Time now 2017-Oct-23 00:32 UTC.
Position N 41°09' W 008°43'.

Length 19 m.

Type: Fishing. MMSI: 263411970.

Date/timePositionNaut miles runAvg speedWind from/ knotsBaromVisibWave heightAir tempDewpointWater temp
2017-Oct-18 21:59N 41°09' W 008°43'2 0.0
2017-Oct-17 09:11N 41°11' W 008°42'0 0.0
2017-Oct-17 09:00N 41°11' W 008°42'0 0.0
2017-Oct-17 08:30N 41°11' W 008°42'0 0.0
2017-Oct-17 08:00N 41°11' W 008°42'0 0.0
2017-Oct-17 07:30N 41°11' W 008°42'0 0.0
2017-Oct-17 07:00N 41°11' W 008°42'0 0.0
2017-Oct-17 06:30N 41°11' W 008°42'0 0.0
2017-Oct-17 06:00N 41°11' W 008°42'0 0.0
2017-Oct-17 05:30N 41°11' W 008°42'0 0.0
2017-Oct-17 05:00N 41°11' W 008°42'2 0.3
2017-Oct-16 22:03N 41°09' W 008°43'110.3
2017-Oct-16 21:59N 41°10' W 008°43'1 0.1
2017-Oct-16 13:11N 41°11' W 008°42'0 0.1
2017-Oct-16 13:00N 41°11' W 008°42'0 0.0
2017-Oct-16 12:30N 41°11' W 008°42'0 0.0
2017-Oct-16 12:00N 41°11' W 008°42'0 0.0
2017-Oct-16 11:30N 41°11' W 008°42'0 0.0
2017-Oct-16 11:00N 41°11' W 008°42'0 0.0
2017-Oct-16 10:30N 41°11' W 008°42'0 0.0
2017-Oct-16 10:00N 41°11' W 008°42'3 0.4
2017-Oct-16 02:26N 41°08' W 008°42'3 7.8
2017-Oct-16 02:00N 41°11' W 008°42'0 0.0
2017-Oct-16 01:30N 41°11' W 008°42'0 0.0
2017-Oct-16 01:00N 41°11' W 008°42'0 0.0
2017-Oct-16 00:30N 41°11' W 008°42'0 0.0
2017-Oct-16 00:00N 41°11' W 008°42'0 0.0
2017-Oct-15 23:30N 41°11' W 008°42'0 0.0
2017-Oct-15 23:00N 41°11' W 008°42'0 0.0
2017-Oct-15 22:30N 41°11' W 008°42'0 0.0
2017-Oct-15 22:00N 41°11' W 008°42'0 0.0
2017-Oct-14 07:48N 41°11' W 008°42'0 0.0
2017-Oct-14 07:31N 41°11' W 008°42'0 0.0
2017-Oct-14 07:01N 41°11' W 008°42'0 0.0
2017-Oct-13 14:17N 41°11' W 008°42'0 0.0
2017-Oct-13 14:01N 41°11' W 008°42'0 0.0
2017-Oct-13 13:31N 41°11' W 008°42'0 0.0
2017-Oct-13 13:01N 41°11' W 008°42'0 0.0
2017-Oct-13 12:30N 41°11' W 008°42'0 0.0
2017-Oct-13 12:00N 41°11' W 008°42'0 0.0
2017-Oct-13 11:30N 41°11' W 008°42'0 0.0
2017-Oct-13 11:00N 41°11' W 008°42'0 0.0
2017-Oct-13 10:30N 41°11' W 008°42'0 0.0
2017-Oct-13 10:00N 41°11' W 008°42'0 0.0
2017-Oct-13 09:30N 41°11' W 008°42'0 0.0
2017-Oct-13 09:00N 41°11' W 008°42'0 0.0
2017-Oct-13 08:31N 41°11' W 008°42'0 0.3
2017-Oct-13 08:00N 41°11' W 008°42'0 0.3
2017-Oct-13 07:31N 41°11' W 008°42'0 0.0
2017-Oct-13 07:01N 41°11' W 008°42'0 0.0
2017-Oct-13 06:30N 41°11' W 008°42'1 2.3
2017-Oct-13 06:00N 41°10' W 008°42'  
2017-Oct-08 23:02N 41°09' W 008°43'010.8
2017-Oct-08 23:00N 41°09' W 008°43'2 3.6
2017-Oct-08 22:30N 41°11' W 008°42'  

Dump ship's entire track history